createdAt,value
2019-03-22T00:02:50.266Z,100973.41
2019-03-22T00:07:54.293Z,100980.80
2019-03-22T00:12:58.555Z,100969.39
2019-03-22T00:18:02.455Z,100969.43
2019-03-22T00:23:06.397Z,100967.25
2019-03-22T00:28:10.316Z,100963.80
2019-03-22T00:33:14.200Z,100960.03
2019-03-22T00:38:18.358Z,100960.67
2019-03-22T00:43:22.310Z,100962.16
2019-03-22T00:48:26.233Z,100957.05
2019-03-22T00:53:30.157Z,100956.08
2019-03-22T00:58:34.082Z,100962.83
2019-03-22T01:03:38.014Z,100962.98
2019-03-22T01:08:41.880Z,100957.23
2019-03-22T01:13:45.868Z,100951.95
2019-03-22T01:18:49.787Z,100941.89
2019-03-22T01:23:53.948Z,100935.15
2019-03-22T01:28:58.263Z,100938.95
2019-03-22T01:34:02.569Z,100932.83
2019-03-22T01:39:07.402Z,100935.95
2019-03-22T01:44:11.609Z,100933.17
2019-03-22T01:49:15.389Z,100931.86
2019-03-22T01:54:19.541Z,100935.45
2019-03-22T01:59:23.467Z,100930.52
2019-03-22T02:04:27.400Z,100912.08
2019-03-22T02:09:31.314Z,100908.77
2019-03-22T02:14:35.209Z,100903.00
2019-03-22T02:19:39.075Z,100900.05
2019-03-22T02:24:43.003Z,100889.97
2019-03-22T02:29:46.864Z,100894.09
2019-03-22T02:34:51.011Z,100899.20
2019-03-22T02:39:55.043Z,100891.30
2019-03-22T02:44:58.907Z,100895.08
2019-03-22T02:50:17.192Z,100894.77
2019-03-22T02:55:09.661Z,100898.55
2019-03-22T03:00:14.975Z,100901.53
2019-03-22T03:05:18.829Z,100902.02
2019-03-22T03:10:22.852Z,100906.78
2019-03-22T03:15:26.695Z,100919.47
2019-03-22T03:20:30.705Z,100911.24
2019-03-22T03:25:34.488Z,100911.87
2019-03-22T03:30:38.423Z,100908.61
2019-03-22T03:35:42.240Z,100915.34
2019-03-22T03:40:46.105Z,100920.45
2019-03-22T03:45:50.398Z,100918.33
2019-03-22T03:50:54.295Z,100909.41
2019-03-22T03:55:58.141Z,100896.73
2019-03-22T04:01:01.865Z,100898.21
2019-03-22T04:06:05.775Z,100904.94
2019-03-22T04:11:09.877Z,100896.38
2019-03-22T04:16:13.907Z,100895.06
2019-03-22T04:21:17.801Z,100895.03
2019-03-22T04:26:21.869Z,100899.18
2019-03-22T04:31:25.963Z,100889.76
2019-03-22T04:36:29.993Z,100878.38
2019-03-22T04:41:33.723Z,100877.06
2019-03-22T04:46:40.792Z,100880.20
2019-03-22T04:51:46.001Z,100873.94
2019-03-22T04:56:51.977Z,100891.21
2019-03-22T05:01:58.959Z,100898.44
2019-03-22T05:07:03.315Z,100909.66
2019-03-22T05:12:14.139Z,100918.39
2019-03-22T05:17:18.342Z,100911.63
2019-03-22T05:22:26.725Z,100906.89
2019-03-22T05:27:33.472Z,100921.05
2019-03-22T05:32:37.819Z,100919.06
2019-03-22T05:37:42.031Z,100925.52
2019-03-22T05:42:45.787Z,100921.39
2019-03-22T05:47:49.794Z,100924.85
2019-03-22T05:52:53.718Z,100930.15
2019-03-22T05:57:58.109Z,100930.97
2019-03-22T06:03:01.976Z,100936.73
2019-03-22T06:08:06.119Z,100947.62
2019-03-22T06:13:09.981Z,100952.04
2019-03-22T06:18:14.095Z,100944.80
2019-03-22T06:23:17.996Z,100939.30
2019-03-22T06:28:22.133Z,100942.94
2019-03-22T06:33:25.931Z,100952.70
2019-03-22T06:38:29.713Z,100963.48
2019-03-22T06:43:33.600Z,100959.92
2019-03-22T06:48:37.392Z,100964.48
2019-03-22T06:53:41.132Z,100980.13
2019-03-22T06:58:44.897Z,100982.14
2019-03-22T07:03:48.662Z,100976.92
2019-03-22T07:08:52.524Z,100987.64
2019-03-22T07:13:56.667Z,100994.36
2019-03-22T07:19:00.593Z,101003.43
2019-03-22T07:24:05.018Z,101011.42
2019-03-22T07:29:09.048Z,101017.77
2019-03-22T07:34:12.921Z,101019.59
2019-03-22T07:39:16.659Z,101012.33
2019-03-22T07:44:20.432Z,101037.69
2019-03-22T07:49:24.442Z,101046.56
2019-03-22T07:54:28.268Z,101044.50
2019-03-22T07:59:32.230Z,101061.75
2019-03-22T08:04:36.000Z,101069.23
2019-03-22T08:09:40.053Z,101082.06
2019-03-22T08:14:44.323Z,101083.16
2019-03-22T08:19:48.227Z,101083.79
2019-03-22T08:24:52.138Z,101080.87
2019-03-22T08:29:56.202Z,101063.57
2019-03-22T08:34:59.976Z,101057.67
2019-03-22T08:40:04.230Z,101047.27
2019-03-22T08:45:11.263Z,101059.19
2019-03-22T08:50:14.720Z,101056.20
2019-03-22T08:55:18.675Z,101050.61
2019-03-22T09:00:22.644Z,101043.83
2019-03-22T09:05:26.528Z,101037.95
2019-03-22T09:10:30.389Z,101035.64
2019-03-22T09:15:40.966Z,101040.00
2019-03-22T09:20:40.237Z,101034.16
2019-03-22T09:25:44.097Z,101022.14
2019-03-22T09:30:48.027Z,101011.30
2019-03-22T09:35:51.954Z,101013.95
2019-03-22T09:40:56.053Z,101005.61
2019-03-22T09:46:00.565Z,101004.98
2019-03-22T09:51:04.324Z,101000.98
2019-03-22T09:56:08.193Z,101000.28
2019-03-22T10:01:23.227Z,100987.80
2019-03-22T10:06:17.686Z,100997.08
2019-03-22T10:11:21.589Z,100991.33
2019-03-22T10:16:25.529Z,100997.08
2019-03-22T10:21:29.589Z,100982.93
2019-03-22T10:26:33.546Z,100970.10
2019-03-22T10:31:37.972Z,100967.48
2019-03-22T10:36:42.163Z,100970.41
2019-03-22T10:41:46.025Z,100969.28
2019-03-22T10:46:49.858Z,100964.12
2019-03-22T10:51:57.293Z,100967.60
2019-03-22T10:57:00.314Z,100962.48
2019-03-22T11:02:07.542Z,100971.05
2019-03-22T11:07:10.200Z,100973.55
2019-03-22T11:12:14.099Z,100982.80
2019-03-22T11:17:17.869Z,100981.44
2019-03-22T11:22:21.642Z,100981.63
2019-03-22T11:27:25.580Z,100980.20
2019-03-22T11:32:30.161Z,100984.22
2019-03-22T11:37:34.015Z,100983.67
2019-03-22T11:42:38.314Z,100981.88
2019-03-22T11:47:42.350Z,100992.20
2019-03-22T11:52:46.159Z,100993.17
2019-03-22T11:57:49.921Z,100982.91
2019-03-22T12:02:54.062Z,100970.11
2019-03-22T12:07:57.882Z,100961.47
2019-03-22T12:13:01.641Z,100957.52
2019-03-22T12:18:06.225Z,100951.83
2019-03-22T12:23:10.252Z,100929.74
2019-03-22T12:28:14.166Z,100929.38
2019-03-22T12:33:18.108Z,100934.11
2019-03-22T12:38:22.144Z,100931.03
2019-03-22T12:43:26.067Z,100930.80
2019-03-22T12:48:29.868Z,100929.70
2019-03-22T12:53:33.826Z,100933.34
2019-03-22T12:58:37.655Z,100935.16
2019-03-22T13:03:41.777Z,100942.33
2019-03-22T13:08:45.629Z,100941.14
2019-03-22T13:13:49.385Z,100927.44
2019-03-22T13:18:53.212Z,100928.44
2019-03-22T13:23:57.076Z,100925.16
2019-03-22T13:29:00.813Z,100913.34
2019-03-22T13:34:04.559Z,100906.70
2019-03-22T13:39:08.894Z,100918.34
2019-03-22T13:44:12.697Z,100924.22
2019-03-22T13:49:16.705Z,100932.19
2019-03-22T13:54:20.638Z,100938.62
2019-03-22T13:59:24.538Z,100931.61
2019-03-22T14:04:28.417Z,100941.41
2019-03-22T14:09:32.712Z,100941.41
2019-03-22T14:14:36.981Z,100922.09
2019-03-22T14:19:40.891Z,100910.81
2019-03-22T14:24:44.815Z,100905.70
2019-03-22T14:29:48.844Z,100900.58
2019-03-22T14:34:52.780Z,100896.11
2019-03-22T14:39:56.694Z,100896.89
2019-03-22T14:45:00.503Z,100897.75
2019-03-22T14:50:04.798Z,100908.75
2019-03-22T14:55:08.886Z,100900.16
2019-03-22T15:00:13.294Z,100910.64
2019-03-22T15:05:17.188Z,100906.05
2019-03-22T15:10:20.952Z,100914.84
2019-03-22T15:16:02.519Z,100919.83
2019-03-22T15:21:40.386Z,100926.53
2019-03-22T15:27:10.350Z,100915.52
2019-03-22T15:32:28.241Z,100914.09
2019-03-22T15:37:54.611Z,100917.88
2019-03-22T15:42:58.418Z,100920.02
2019-03-22T15:48:02.316Z,100923.25
2019-03-22T15:53:06.231Z,100911.39
2019-03-22T15:58:10.158Z,100924.38
2019-03-22T16:03:13.929Z,100915.14
2019-03-22T16:08:17.813Z,100899.73
2019-03-22T16:13:21.858Z,100897.36
2019-03-22T16:18:25.976Z,100892.94
2019-03-22T16:23:29.900Z,100895.86
2019-03-22T16:28:35.027Z,100906.28
2019-03-22T16:33:38.893Z,100914.14
2019-03-22T16:38:42.822Z,100914.92
2019-03-22T16:43:46.871Z,100922.94
2019-03-22T16:48:50.775Z,100918.57
2019-03-22T16:53:54.781Z,100917.01
2019-03-22T16:58:58.608Z,100921.45
2019-03-22T17:04:04.636Z,100925.17
2019-03-22T17:09:08.491Z,100933.54
2019-03-22T17:14:12.453Z,100932.81
2019-03-22T17:19:16.472Z,100913.22
2019-03-22T17:24:20.419Z,100919.59
2019-03-22T17:29:24.170Z,100924.23
2019-03-22T17:34:28.264Z,100922.69
2019-03-22T17:39:32.303Z,100918.77
2019-03-22T17:44:36.173Z,100919.66
2019-03-22T17:49:47.760Z,100930.55
2019-03-22T17:54:45.715Z,100934.14
2019-03-22T17:59:49.641Z,100934.98
2019-03-22T18:04:53.579Z,100934.61
2019-03-22T18:09:57.444Z,100941.29
2019-03-22T18:15:01.892Z,100948.52
2019-03-22T18:20:07.764Z,100949.61
2019-03-22T18:25:13.169Z,100953.30
2019-03-22T18:30:17.042Z,100944.00
2019-03-22T18:35:20.904Z,100937.46
2019-03-22T18:40:24.793Z,100932.34
2019-03-22T18:45:28.770Z,100938.86
2019-03-22T18:50:32.551Z,100929.62
2019-03-22T18:55:36.713Z,100931.65
2019-03-22T19:00:40.661Z,100925.92
2019-03-22T19:05:47.955Z,100923.58
2019-03-22T19:10:51.898Z,100915.07
2019-03-22T19:15:55.831Z,100918.92
2019-03-22T19:20:59.679Z,100904.89
2019-03-22T19:26:03.576Z,100909.81
2019-03-22T19:31:07.614Z,100902.20
2019-03-22T19:36:11.522Z,100905.94
2019-03-22T19:41:15.260Z,100896.73
2019-03-22T19:46:19.099Z,100894.72
2019-03-22T19:51:22.936Z,100901.95
2019-03-22T19:56:26.825Z,100896.55
2019-03-22T20:01:30.759Z,100893.37
2019-03-22T20:06:34.689Z,100891.73
2019-03-22T20:11:38.600Z,100883.94
2019-03-22T20:16:42.644Z,100893.77
2019-03-22T20:21:46.581Z,100890.94
2019-03-22T20:26:50.552Z,100884.26
2019-03-22T20:31:54.441Z,100870.52
2019-03-22T20:36:58.295Z,100883.19
2019-03-22T20:42:02.377Z,100881.73
2019-03-22T20:47:06.247Z,100893.63
2019-03-22T20:52:10.161Z,100899.05
2019-03-22T20:57:14.388Z,100895.38
2019-03-22T21:02:18.252Z,100894.22
2019-03-22T21:07:22.239Z,100895.09
2019-03-22T21:12:26.362Z,100881.71
2019-03-22T21:17:30.289Z,100894.84
2019-03-22T21:22:34.060Z,100893.02
2019-03-22T21:27:37.878Z,100884.78
2019-03-22T21:32:45.557Z,100893.31
2019-03-22T21:37:47.323Z,100887.33
2019-03-22T21:42:51.137Z,100887.45
2019-03-22T21:47:55.082Z,100880.34
2019-03-22T21:52:58.904Z,100862.36
2019-03-22T21:58:03.654Z,100867.42
2019-03-22T22:03:07.476Z,100849.11
2019-03-22T22:08:11.616Z,100861.23
2019-03-22T22:13:15.641Z,100870.36
2019-03-22T22:18:19.601Z,100860.79
2019-03-22T22:23:23.416Z,100857.87
2019-03-22T22:28:27.409Z,100849.20
2019-03-22T22:33:31.349Z,100846.77
2019-03-22T22:38:35.375Z,100826.22
2019-03-22T22:43:39.250Z,100831.65
2019-03-22T22:48:43.075Z,100839.75
2019-03-22T22:53:47.113Z,100837.76
2019-03-22T22:58:50.987Z,100834.95
2019-03-22T23:03:54.913Z,100837.37
2019-03-22T23:08:58.831Z,100830.77
2019-03-22T23:14:02.575Z,100831.92
2019-03-22T23:19:06.604Z,100837.45
2019-03-22T23:24:10.648Z,100831.53
2019-03-22T23:29:14.642Z,100830.46
2019-03-22T23:34:18.605Z,100826.79
2019-03-22T23:39:22.602Z,100822.19
2019-03-22T23:44:26.527Z,100827.21
2019-03-22T23:49:30.419Z,100831.66
2019-03-22T23:54:34.584Z,100821.46
2019-03-22T23:59:38.478Z,100821.85
